sensor_id;sensor_type;location;lat;lon;timestamp;P1;durP1;ratioP1;P2;durP2;ratioP2
39874;SDS011;25547;52.530;13.194;2023-04-24T00:00:44;2.00;;;0.35;;
39874;SDS011;25547;52.530;13.194;2023-04-24T00:03:13;2.22;;;0.75;;
39874;SDS011;25547;52.530;13.194;2023-04-24T00:05:40;2.33;;;0.75;;
39874;SDS011;25547;52.530;13.194;2023-04-24T00:08:06;1.70;;;0.80;;
39874;SDS011;25547;52.530;13.194;2023-04-24T00:10:34;2.22;;;1.00;;
39874;SDS011;25547;52.530;13.194;2023-04-24T00:13:00;3.22;;;1.15;;
39874;SDS011;25547;52.530;13.194;2023-04-24T00:15:26;3.65;;;1.20;;
39874;SDS011;25547;52.530;13.194;2023-04-24T00:17:51;2.78;;;1.00;;
39874;SDS011;25547;52.530;13.194;2023-04-24T00:20:18;2.92;;;1.02;;
39874;SDS011;25547;52.530;13.194;2023-04-24T00:22:44;3.13;;;1.38;;
39874;SDS011;25547;52.530;13.194;2023-04-24T00:25:11;2.83;;;0.73;;
39874;SDS011;25547;52.530;13.194;2023-04-24T00:27:37;3.80;;;1.40;;
39874;SDS011;25547;52.530;13.194;2023-04-24T00:30:05;1.50;;;0.73;;
39874;SDS011;25547;52.530;13.194;2023-04-24T00:32:31;2.78;;;1.42;;
39874;SDS011;25547;52.530;13.194;2023-04-24T00:34:59;2.72;;;1.02;;
39874;SDS011;25547;52.530;13.194;2023-04-24T00:37:25;4.05;;;0.82;;
39874;SDS011;25547;52.530;13.194;2023-04-24T00:39:51;2.17;;;1.08;;
39874;SDS011;25547;52.530;13.194;2023-04-24T00:42:16;2.75;;;1.38;;
39874;SDS011;25547;52.530;13.194;2023-04-24T00:44:42;2.67;;;1.05;;
39874;SDS011;25547;52.530;13.194;2023-04-24T00:47:08;2.45;;;1.08;;
39874;SDS011;25547;52.530;13.194;2023-04-24T00:49:34;2.50;;;1.55;;
39874;SDS011;25547;52.530;13.194;2023-04-24T00:51:59;4.07;;;1.23;;
39874;SDS011;25547;52.530;13.194;2023-04-24T00:54:28;2.35;;;0.70;;
39874;SDS011;25547;52.530;13.194;2023-04-24T00:56:53;2.35;;;1.27;;
39874;SDS011;25547;52.530;13.194;2023-04-24T00:59:21;4.53;;;1.10;;
39874;SDS011;25547;52.530;13.194;2023-04-24T01:01:47;2.30;;;1.10;;
39874;SDS011;25547;52.530;13.194;2023-04-24T01:04:13;3.67;;;1.35;;
39874;SDS011;25547;52.530;13.194;2023-04-24T01:06:40;3.50;;;0.93;;
39874;SDS011;25547;52.530;13.194;2023-04-24T01:09:12;2.47;;;0.90;;
39874;SDS011;25547;52.530;13.194;2023-04-24T01:11:40;2.20;;;1.00;;
39874;SDS011;25547;52.530;13.194;2023-04-24T01:14:07;5.22;;;1.50;;
39874;SDS011;25547;52.530;13.194;2023-04-24T01:16:33;2.88;;;1.88;;
39874;SDS011;25547;52.530;13.194;2023-04-24T01:18:59;3.50;;;1.70;;
39874;SDS011;25547;52.530;13.194;2023-04-24T01:21:28;2.67;;;1.75;;
39874;SDS011;25547;52.530;13.194;2023-04-24T01:23:55;2.40;;;1.20;;
39874;SDS011;25547;52.530;13.194;2023-04-24T01:26:21;2.67;;;1.58;;
39874;SDS011;25547;52.530;13.194;2023-04-24T01:28:50;3.38;;;1.63;;
39874;SDS011;25547;52.530;13.194;2023-04-24T01:31:17;3.50;;;1.95;;
39874;SDS011;25547;52.530;13.194;2023-04-24T01:33:43;2.78;;;1.55;;
39874;SDS011;25547;52.530;13.194;2023-04-24T01:36:10;3.17;;;1.60;;
39874;SDS011;25547;52.530;13.194;2023-04-24T01:38:36;5.90;;;3.45;;
39874;SDS011;25547;52.530;13.194;2023-04-24T01:41:02;7.00;;;2.58;;
39874;SDS011;25547;52.530;13.194;2023-04-24T01:43:28;9.25;;;4.13;;
39874;SDS011;25547;52.530;13.194;2023-04-24T01:45:54;5.32;;;3.92;;
39874;SDS011;25547;52.530;13.194;2023-04-24T01:48:20;2.72;;;1.20;;
39874;SDS011;25547;52.530;13.194;2023-04-24T01:50:46;2.97;;;1.60;;
39874;SDS011;25547;52.530;13.194;2023-04-24T01:53:11;3.97;;;1.48;;
39874;SDS011;25547;52.530;13.194;2023-04-24T01:55:37;3.97;;;1.98;;
39874;SDS011;25547;52.530;13.194;2023-04-24T01:58:03;4.57;;;0.95;;
39874;SDS011;25547;52.530;13.194;2023-04-24T02:00:29;2.20;;;1.27;;
39874;SDS011;25547;52.530;13.194;2023-04-24T02:02:55;2.67;;;1.42;;
39874;SDS011;25547;52.530;13.194;2023-04-24T02:05:20;3.33;;;2.35;;
39874;SDS011;25547;52.530;13.194;2023-04-24T02:07:46;4.05;;;1.67;;
39874;SDS011;25547;52.530;13.194;2023-04-24T02:10:14;3.95;;;1.25;;
39874;SDS011;25547;52.530;13.194;2023-04-24T02:12:40;4.53;;;1.33;;
39874;SDS011;25547;52.530;13.194;2023-04-24T02:15:08;2.70;;;1.90;;
39874;SDS011;25547;52.530;13.194;2023-04-24T02:17:34;3.17;;;2.10;;
39874;SDS011;25547;52.530;13.194;2023-04-24T02:19:59;2.40;;;1.50;;
39874;SDS011;25547;52.530;13.194;2023-04-24T02:22:25;2.42;;;1.48;;
39874;SDS011;25547;52.530;13.194;2023-04-24T02:24:51;18.80;;;9.60;;
39874;SDS011;25547;52.530;13.194;2023-04-24T02:27:16;5.10;;;2.72;;
39874;SDS011;25547;52.530;13.194;2023-04-24T02:29:44;2.88;;;1.52;;
39874;SDS011;25547;52.530;13.194;2023-04-24T02:32:10;2.92;;;1.77;;
39874;SDS011;25547;52.530;13.194;2023-04-24T02:34:42;4.43;;;2.00;;
39874;SDS011;25547;52.530;13.194;2023-04-24T02:37:10;2.80;;;1.55;;
39874;SDS011;25547;52.530;13.194;2023-04-24T02:39:36;2.20;;;1.48;;
39874;SDS011;25547;52.530;13.194;2023-04-24T02:42:04;5.25;;;1.70;;
39874;SDS011;25547;52.530;13.194;2023-04-24T02:44:30;2.58;;;1.55;;
39874;SDS011;25547;52.530;13.194;2023-04-24T02:46:58;4.43;;;2.22;;
39874;SDS011;25547;52.530;13.194;2023-04-24T02:49:23;3.17;;;2.22;;
39874;SDS011;25547;52.530;13.194;2023-04-24T02:51:49;4.63;;;1.70;;
39874;SDS011;25547;52.530;13.194;2023-04-24T02:54:17;2.90;;;1.38;;
39874;SDS011;25547;52.530;13.194;2023-04-24T02:56:42;3.22;;;1.35;;
39874;SDS011;25547;52.530;13.194;2023-04-24T02:59:08;2.47;;;1.67;;
39874;SDS011;25547;52.530;13.194;2023-04-24T03:01:35;3.50;;;1.98;;
39874;SDS011;25547;52.530;13.194;2023-04-24T03:04:01;4.45;;;2.60;;
39874;SDS011;25547;52.530;13.194;2023-04-24T03:06:29;2.85;;;1.45;;
39874;SDS011;25547;52.530;13.194;2023-04-24T03:08:57;2.80;;;1.77;;
39874;SDS011;25547;52.530;13.194;2023-04-24T03:11:23;7.32;;;2.17;;
39874;SDS011;25547;52.530;13.194;2023-04-24T03:13:49;2.45;;;1.48;;
39874;SDS011;25547;52.530;13.194;2023-04-24T03:16:14;2.25;;;1.33;;
39874;SDS011;25547;52.530;13.194;2023-04-24T03:18:40;3.90;;;2.58;;
39874;SDS011;25547;52.530;13.194;2023-04-24T03:21:06;4.63;;;2.25;;
39874;SDS011;25547;52.530;13.194;2023-04-24T03:23:31;5.85;;;2.22;;
39874;SDS011;25547;52.530;13.194;2023-04-24T03:25:59;4.05;;;1.85;;
39874;SDS011;25547;52.530;13.194;2023-04-24T03:28:25;4.57;;;2.33;;
39874;SDS011;25547;52.530;13.194;2023-04-24T03:30:51;3.65;;;1.67;;
39874;SDS011;25547;52.530;13.194;2023-04-24T03:33:18;4.38;;;2.22;;
39874;SDS011;25547;52.530;13.194;2023-04-24T03:35:44;4.68;;;1.80;;
39874;SDS011;25547;52.530;13.194;2023-04-24T03:38:10;3.30;;;2.30;;
39874;SDS011;25547;52.530;13.194;2023-04-24T03:40:38;4.80;;;2.70;;
39874;SDS011;25547;52.530;13.194;2023-04-24T03:43:03;2.95;;;2.45;;
39874;SDS011;25547;52.530;13.194;2023-04-24T03:45:32;3.78;;;2.22;;
39874;SDS011;25547;52.530;13.194;2023-04-24T03:48:00;6.60;;;2.58;;
39874;SDS011;25547;52.530;13.194;2023-04-24T03:50:28;3.65;;;2.47;;
39874;SDS011;25547;52.530;13.194;2023-04-24T03:52:58;4.75;;;2.08;;
39874;SDS011;25547;52.530;13.194;2023-04-24T03:55:23;3.38;;;2.00;;
39874;SDS011;25547;52.530;13.194;2023-04-24T03:57:49;2.78;;;1.77;;
39874;SDS011;25547;52.530;13.194;2023-04-24T04:00:15;4.93;;;2.50;;
39874;SDS011;25547;52.530;13.194;2023-04-24T04:02:46;3.28;;;1.60;;
39874;SDS011;25547;52.530;13.194;2023-04-24T04:05:11;3.67;;;2.92;;
39874;SDS011;25547;52.530;13.194;2023-04-24T04:07:37;8.38;;;3.22;;
39874;SDS011;25547;52.530;13.194;2023-04-24T04:10:03;3.38;;;1.67;;
39874;SDS011;25547;52.530;13.194;2023-04-24T04:12:29;4.82;;;2.20;;
39874;SDS011;25547;52.530;13.194;2023-04-24T04:14:57;2.75;;;1.88;;
39874;SDS011;25547;52.530;13.194;2023-04-24T04:17:23;3.72;;;2.78;;
39874;SDS011;25547;52.530;13.194;2023-04-24T04:19:51;4.05;;;1.80;;
39874;SDS011;25547;52.530;13.194;2023-04-24T04:22:18;5.68;;;1.80;;
39874;SDS011;25547;52.530;13.194;2023-04-24T04:24:44;5.13;;;1.73;;
39874;SDS011;25547;52.530;13.194;2023-04-24T04:27:12;2.97;;;1.65;;
39874;SDS011;25547;52.530;13.194;2023-04-24T04:32:09;2.67;;;1.10;;
39874;SDS011;25547;52.530;13.194;2023-04-24T04:34:37;2.55;;;1.10;;
39874;SDS011;25547;52.530;13.194;2023-04-24T04:37:04;2.60;;;1.67;;
39874;SDS011;25547;52.530;13.194;2023-04-24T04:39:30;1.80;;;1.00;;
39874;SDS011;25547;52.530;13.194;2023-04-24T04:41:56;2.30;;;1.15;;
39874;SDS011;25547;52.530;13.194;2023-04-24T04:44:25;3.50;;;1.40;;
39874;SDS011;25547;52.530;13.194;2023-04-24T04:46:53;4.10;;;1.30;;
39874;SDS011;25547;52.530;13.194;2023-04-24T04:49:21;2.45;;;1.38;;
39874;SDS011;25547;52.530;13.194;2023-04-24T04:51:49;2.85;;;0.82;;
39874;SDS011;25547;52.530;13.194;2023-04-24T04:54:18;3.65;;;0.90;;
39874;SDS011;25547;52.530;13.194;2023-04-24T04:56:46;4.35;;;1.42;;
39874;SDS011;25547;52.530;13.194;2023-04-24T04:59:11;3.20;;;1.35;;
39874;SDS011;25547;52.530;13.194;2023-04-24T05:01:38;4.97;;;0.98;;
39874;SDS011;25547;52.530;13.194;2023-04-24T05:04:04;2.78;;;1.33;;
39874;SDS011;25547;52.530;13.194;2023-04-24T05:06:29;3.33;;;0.70;;
39874;SDS011;25547;52.530;13.194;2023-04-24T05:08:55;1.80;;;1.08;;
39874;SDS011;25547;52.530;13.194;2023-04-24T05:11:22;2.83;;;1.08;;
39874;SDS011;25547;52.530;13.194;2023-04-24T05:13:48;2.58;;;0.80;;
39874;SDS011;25547;52.530;13.194;2023-04-24T05:16:16;2.88;;;1.20;;
39874;SDS011;25547;52.530;13.194;2023-04-24T05:18:41;3.15;;;1.30;;
39874;SDS011;25547;52.530;13.194;2023-04-24T05:21:07;4.63;;;0.70;;
39874;SDS011;25547;52.530;13.194;2023-04-24T05:23:35;2.20;;;0.60;;
39874;SDS011;25547;52.530;13.194;2023-04-24T05:26:03;2.63;;;0.55;;
39874;SDS011;25547;52.530;13.194;2023-04-24T05:28:31;2.47;;;0.60;;
39874;SDS011;25547;52.530;13.194;2023-04-24T05:31:01;2.53;;;0.50;;
39874;SDS011;25547;52.530;13.194;2023-04-24T05:33:27;2.30;;;0.47;;
39874;SDS011;25547;52.530;13.194;2023-04-24T05:35:53;2.72;;;0.85;;
39874;SDS011;25547;52.530;13.194;2023-04-24T05:38:19;2.25;;;0.73;;
39874;SDS011;25547;52.530;13.194;2023-04-24T05:40:45;1.77;;;0.73;;
39874;SDS011;25547;52.530;13.194;2023-04-24T05:43:11;2.30;;;0.70;;
39874;SDS011;25547;52.530;13.194;2023-04-24T05:45:39;2.25;;;0.57;;
39874;SDS011;25547;52.530;13.194;2023-04-24T05:48:05;3.47;;;0.45;;
39874;SDS011;25547;52.530;13.194;2023-04-24T05:50:35;1.90;;;0.60;;
39874;SDS011;25547;52.530;13.194;2023-04-24T05:53:01;3.50;;;0.73;;
39874;SDS011;25547;52.530;13.194;2023-04-24T05:55:27;1.70;;;0.45;;
39874;SDS011;25547;52.530;13.194;2023-04-24T05:57:53;1.50;;;0.32;;
39874;SDS011;25547;52.530;13.194;2023-04-24T06:00:19;1.95;;;0.40;;
39874;SDS011;25547;52.530;13.194;2023-04-24T06:02:45;6.97;;;0.28;;
39874;SDS011;25547;52.530;13.194;2023-04-24T06:05:12;2.05;;;0.20;;
39874;SDS011;25547;52.530;13.194;2023-04-24T06:07:39;1.25;;;0.20;;
39874;SDS011;25547;52.530;13.194;2023-04-24T06:10:05;1.25;;;0.20;;
39874;SDS011;25547;52.530;13.194;2023-04-24T06:12:31;1.75;;;0.10;;
39874;SDS011;25547;52.530;13.194;2023-04-24T06:14:57;0.75;;;0.10;;
39874;SDS011;25547;52.530;13.194;2023-04-24T06:17:23;0.63;;;0.10;;
39874;SDS011;25547;52.530;13.194;2023-04-24T06:19:51;1.42;;;0.20;;
39874;SDS011;25547;52.530;13.194;2023-04-24T06:22:16;1.52;;;0.10;;
39874;SDS011;25547;52.530;13.194;2023-04-24T06:24:42;1.05;;;0.10;;
39874;SDS011;25547;52.530;13.194;2023-04-24T06:27:07;1.45;;;0.10;;
39874;SDS011;25547;52.530;13.194;2023-04-24T06:29:36;0.70;;;0.10;;
39874;SDS011;25547;52.530;13.194;2023-04-24T06:32:01;0.90;;;0.00;;
39874;SDS011;25547;52.530;13.194;2023-04-24T06:34:27;0.70;;;0.10;;
39874;SDS011;25547;52.530;13.194;2023-04-24T06:36:53;0.82;;;0.10;;
39874;SDS011;25547;52.530;13.194;2023-04-24T06:39:20;2.38;;;0.10;;
39874;SDS011;25547;52.530;13.194;2023-04-24T06:41:45;1.83;;;0.10;;
39874;SDS011;25547;52.530;13.194;2023-04-24T06:44:11;0.88;;;0.10;;
39874;SDS011;25547;52.530;13.194;2023-04-24T06:46:39;1.15;;;0.03;;
39874;SDS011;25547;52.530;13.194;2023-04-24T06:49:06;0.88;;;0.00;;
39874;SDS011;25547;52.530;13.194;2023-04-24T06:51:31;2.13;;;0.63;;
39874;SDS011;25547;52.530;13.194;2023-04-24T06:53:58;2.88;;;0.03;;
39874;SDS011;25547;52.530;13.194;2023-04-24T06:56:26;2.25;;;0.15;;
39874;SDS011;25547;52.530;13.194;2023-04-24T06:58:53;2.92;;;0.00;;
39874;SDS011;25547;52.530;13.194;2023-04-24T07:01:21;2.38;;;0.00;;
39874;SDS011;25547;52.530;13.194;2023-04-24T07:03:49;0.22;;;0.00;;
39874;SDS011;25547;52.530;13.194;2023-04-24T07:06:20;1.45;;;0.00;;
39874;SDS011;25547;52.530;13.194;2023-04-24T07:08:47;2.00;;;0.00;;
39874;SDS011;25547;52.530;13.194;2023-04-24T07:11:15;0.30;;;0.00;;
39874;SDS011;25547;52.530;13.194;2023-04-24T07:13:43;0.93;;;0.00;;
39874;SDS011;25547;52.530;13.194;2023-04-24T07:16:14;0.77;;;0.00;;
39874;SDS011;25547;52.530;13.194;2023-04-24T07:18:42;0.50;;;0.00;;
39874;SDS011;25547;52.530;13.194;2023-04-24T07:21:10;0.32;;;0.00;;
39874;SDS011;25547;52.530;13.194;2023-04-24T07:23:36;0.38;;;0.00;;
39874;SDS011;25547;52.530;13.194;2023-04-24T07:26:04;0.77;;;0.10;;
39874;SDS011;25547;52.530;13.194;2023-04-24T07:28:30;0.95;;;0.00;;
39874;SDS011;25547;52.530;13.194;2023-04-24T07:30:58;0.30;;;0.00;;
39874;SDS011;25547;52.530;13.194;2023-04-24T07:33:25;0.43;;;0.00;;
39874;SDS011;25547;52.530;13.194;2023-04-24T07:35:51;0.10;;;0.00;;
39874;SDS011;25547;52.530;13.194;2023-04-24T07:38:19;1.85;;;0.00;;
39874;SDS011;25547;52.530;13.194;2023-04-24T07:40:50;0.30;;;0.00;;
39874;SDS011;25547;52.530;13.194;2023-04-24T07:43:16;0.35;;;0.00;;
39874;SDS011;25547;52.530;13.194;2023-04-24T07:45:42;2.05;;;0.00;;
39874;SDS011;25547;52.530;13.194;2023-04-24T07:48:07;0.10;;;0.00;;
39874;SDS011;25547;52.530;13.194;2023-04-24T07:50:34;0.20;;;0.00;;
39874;SDS011;25547;52.530;13.194;2023-04-24T07:53:02;1.27;;;0.00;;
39874;SDS011;25547;52.530;13.194;2023-04-24T07:55:27;0.40;;;0.00;;
39874;SDS011;25547;52.530;13.194;2023-04-24T07:57:53;0.20;;;0.00;;
39874;SDS011;25547;52.530;13.194;2023-04-24T08:00:23;0.30;;;0.00;;
39874;SDS011;25547;52.530;13.194;2023-04-24T08:02:49;0.20;;;0.00;;
39874;SDS011;25547;52.530;13.194;2023-04-24T08:05:16;0.85;;;0.00;;
39874;SDS011;25547;52.530;13.194;2023-04-24T08:07:42;1.55;;;0.00;;
39874;SDS011;25547;52.530;13.194;2023-04-24T08:10:13;0.50;;;0.00;;
39874;SDS011;25547;52.530;13.194;2023-04-24T08:12:40;0.98;;;0.00;;
39874;SDS011;25547;52.530;13.194;2023-04-24T08:15:08;1.88;;;0.00;;
39874;SDS011;25547;52.530;13.194;2023-04-24T08:17:36;0.82;;;0.00;;
39874;SDS011;25547;52.530;13.194;2023-04-24T08:20:04;0.52;;;0.00;;
39874;SDS011;25547;52.530;13.194;2023-04-24T08:22:37;9.18;;;1.65;;
39874;SDS011;25547;52.530;13.194;2023-04-24T08:25:03;1.10;;;0.00;;
39874;SDS011;25547;52.530;13.194;2023-04-24T08:27:29;0.82;;;0.00;;
39874;SDS011;25547;52.530;13.194;2023-04-24T08:29:54;2.15;;;0.00;;
39874;SDS011;25547;52.530;13.194;2023-04-24T08:32:20;0.82;;;0.00;;
39874;SDS011;25547;52.530;13.194;2023-04-24T08:34:52;2.50;;;0.00;;
39874;SDS011;25547;52.530;13.194;2023-04-24T08:37:18;3.05;;;0.00;;
39874;SDS011;25547;52.530;13.194;2023-04-24T08:39:44;0.80;;;0.00;;
39874;SDS011;25547;52.530;13.194;2023-04-24T08:42:14;1.45;;;0.00;;
39874;SDS011;25547;52.530;13.194;2023-04-24T08:44:42;0.50;;;0.00;;
39874;SDS011;25547;52.530;13.194;2023-04-24T08:47:09;2.53;;;0.00;;
39874;SDS011;25547;52.530;13.194;2023-04-24T08:49:38;4.00;;;0.00;;
39874;SDS011;25547;52.530;13.194;2023-04-24T08:52:04;0.32;;;0.00;;
39874;SDS011;25547;52.530;13.194;2023-04-24T08:54:31;1.02;;;0.00;;
39874;SDS011;25547;52.530;13.194;2023-04-24T08:56:59;0.22;;;0.00;;
39874;SDS011;25547;52.530;13.194;2023-04-24T08:59:26;0.30;;;0.00;;
39874;SDS011;25547;52.530;13.194;2023-04-24T09:01:55;2.75;;;0.00;;
39874;SDS011;25547;52.530;13.194;2023-04-24T09:04:22;0.30;;;0.10;;
39874;SDS011;25547;52.530;13.194;2023-04-24T09:06:50;1.80;;;0.00;;
39874;SDS011;25547;52.530;13.194;2023-04-24T09:09:19;0.50;;;0.00;;
39874;SDS011;25547;52.530;13.194;2023-04-24T09:11:46;2.92;;;0.00;;
39874;SDS011;25547;52.530;13.194;2023-04-24T09:14:15;0.47;;;0.00;;
39874;SDS011;25547;52.530;13.194;2023-04-24T09:16:44;0.25;;;0.00;;
39874;SDS011;25547;52.530;13.194;2023-04-24T09:19:09;0.50;;;0.00;;
39874;SDS011;25547;52.530;13.194;2023-04-24T09:21:35;0.38;;;0.00;;
39874;SDS011;25547;52.530;13.194;2023-04-24T09:24:04;0.20;;;0.00;;
39874;SDS011;25547;52.530;13.194;2023-04-24T09:26:33;0.60;;;0.00;;
39874;SDS011;25547;52.530;13.194;2023-04-24T09:29:03;0.63;;;0.20;;
39874;SDS011;25547;52.530;13.194;2023-04-24T09:31:31;0.73;;;0.00;;
39874;SDS011;25547;52.530;13.194;2023-04-24T09:33:57;0.75;;;0.00;;
39874;SDS011;25547;52.530;13.194;2023-04-24T09:36:31;1.00;;;0.00;;
39874;SDS011;25547;52.530;13.194;2023-04-24T09:39:07;1.23;;;0.00;;
39874;SDS011;25547;52.530;13.194;2023-04-24T09:41:49;4.03;;;0.73;;
39874;SDS011;25547;52.530;13.194;2023-04-24T09:44:16;0.95;;;0.15;;
39874;SDS011;25547;52.530;13.194;2023-04-24T09:46:52;2.22;;;0.00;;
39874;SDS011;25547;52.530;13.194;2023-04-24T09:49:28;0.28;;;0.00;;
39874;SDS011;25547;52.530;13.194;2023-04-24T09:52:05;0.60;;;0.00;;
39874;SDS011;25547;52.530;13.194;2023-04-24T09:54:32;1.17;;;0.00;;
39874;SDS011;25547;52.530;13.194;2023-04-24T09:56:58;1.15;;;0.00;;
39874;SDS011;25547;52.530;13.194;2023-04-24T09:59:25;0.57;;;0.00;;
39874;SDS011;25547;52.530;13.194;2023-04-24T10:01:51;2.30;;;0.00;;
39874;SDS011;25547;52.530;13.194;2023-04-24T10:06:46;0.60;;;0.00;;
39874;SDS011;25547;52.530;13.194;2023-04-24T10:09:14;1.05;;;0.00;;
39874;SDS011;25547;52.530;13.194;2023-04-24T10:11:44;1.13;;;0.00;;
39874;SDS011;25547;52.530;13.194;2023-04-24T10:14:12;0.55;;;0.00;;
39874;SDS011;25547;52.530;13.194;2023-04-24T10:16:43;1.85;;;0.00;;
39874;SDS011;25547;52.530;13.194;2023-04-24T10:19:10;1.63;;;0.00;;
39874;SDS011;25547;52.530;13.194;2023-04-24T10:21:38;2.35;;;0.00;;
39874;SDS011;25547;52.530;13.194;2023-04-24T10:24:09;0.77;;;0.00;;
39874;SDS011;25547;52.530;13.194;2023-04-24T10:26:36;2.78;;;0.00;;
39874;SDS011;25547;52.530;13.194;2023-04-24T10:29:05;1.35;;;0.10;;
39874;SDS011;25547;52.530;13.194;2023-04-24T10:31:36;1.25;;;0.10;;
39874;SDS011;25547;52.530;13.194;2023-04-24T10:34:03;0.30;;;0.00;;
39874;SDS011;25547;52.530;13.194;2023-04-24T10:36:32;1.05;;;0.17;;
39874;SDS011;25547;52.530;13.194;2023-04-24T10:39:01;1.20;;;0.10;;
39874;SDS011;25547;52.530;13.194;2023-04-24T10:41:31;0.93;;;0.00;;
39874;SDS011;25547;52.530;13.194;2023-04-24T10:44:11;2.85;;;0.00;;
39874;SDS011;25547;52.530;13.194;2023-04-24T10:46:44;1.20;;;0.00;;
39874;SDS011;25547;52.530;13.194;2023-04-24T10:49:12;0.30;;;0.00;;
39874;SDS011;25547;52.530;13.194;2023-04-24T10:51:48;0.40;;;0.00;;
39874;SDS011;25547;52.530;13.194;2023-04-24T10:59:43;0.95;;;0.00;;
39874;SDS011;25547;52.530;13.194;2023-04-24T11:02:11;1.65;;;0.00;;
39874;SDS011;25547;52.530;13.194;2023-04-24T11:04:40;0.63;;;0.10;;
39874;SDS011;25547;52.530;13.194;2023-04-24T11:07:08;3.45;;;0.00;;
39874;SDS011;25547;52.530;13.194;2023-04-24T11:09:34;0.32;;;0.00;;
39874;SDS011;25547;52.530;13.194;2023-04-24T11:17:32;0.28;;;0.00;;
39874;SDS011;25547;52.530;13.194;2023-04-24T11:20:09;0.45;;;0.00;;
39874;SDS011;25547;52.530;13.194;2023-04-24T11:22:39;0.55;;;0.00;;
39874;SDS011;25547;52.530;13.194;2023-04-24T11:25:05;0.30;;;0.00;;
39874;SDS011;25547;52.530;13.194;2023-04-24T11:27:38;1.05;;;0.00;;
39874;SDS011;25547;52.530;13.194;2023-04-24T11:30:05;1.95;;;0.00;;
39874;SDS011;25547;52.530;13.194;2023-04-24T11:37:41;1.17;;;0.00;;
39874;SDS011;25547;52.530;13.194;2023-04-24T11:40:15;4.75;;;0.20;;
39874;SDS011;25547;52.530;13.194;2023-04-24T11:42:43;0.50;;;0.00;;
39874;SDS011;25547;52.530;13.194;2023-04-24T11:47:40;0.43;;;0.00;;
39874;SDS011;25547;52.530;13.194;2023-04-24T11:50:07;0.20;;;0.00;;
39874;SDS011;25547;52.530;13.194;2023-04-24T11:52:41;1.02;;;0.10;;
39874;SDS011;25547;52.530;13.194;2023-04-24T11:57:39;2.25;;;0.10;;
39874;SDS011;25547;52.530;13.194;2023-04-24T12:00:14;3.65;;;0.00;;
39874;SDS011;25547;52.530;13.194;2023-04-24T12:02:42;2.65;;;0.00;;
39874;SDS011;25547;52.530;13.194;2023-04-24T12:05:07;3.15;;;0.10;;
39874;SDS011;25547;52.530;13.194;2023-04-24T12:07:40;0.30;;;0.00;;
39874;SDS011;25547;52.530;13.194;2023-04-24T12:10:09;0.70;;;0.00;;
39874;SDS011;25547;52.530;13.194;2023-04-24T12:12:35;2.28;;;0.00;;
39874;SDS011;25547;52.530;13.194;2023-04-24T12:15:06;0.43;;;0.00;;
39874;SDS011;25547;52.530;13.194;2023-04-24T12:17:35;3.15;;;0.00;;
39874;SDS011;25547;52.530;13.194;2023-04-24T12:20:06;0.30;;;0.00;;
39874;SDS011;25547;52.530;13.194;2023-04-24T12:22:52;2.10;;;0.00;;
39874;SDS011;25547;52.530;13.194;2023-04-24T12:25:20;0.40;;;0.00;;
39874;SDS011;25547;52.530;13.194;2023-04-24T12:30:28;0.10;;;0.00;;
39874;SDS011;25547;52.530;13.194;2023-04-24T12:32:56;1.20;;;0.00;;
39874;SDS011;25547;52.530;13.194;2023-04-24T12:35:23;1.38;;;0.00;;
39874;SDS011;25547;52.530;13.194;2023-04-24T12:37:50;1.15;;;0.00;;
39874;SDS011;25547;52.530;13.194;2023-04-24T12:40:19;1.15;;;0.00;;
39874;SDS011;25547;52.530;13.194;2023-04-24T12:42:50;1.08;;;0.00;;
39874;SDS011;25547;52.530;13.194;2023-04-24T12:45:19;1.37;;;0.00;;
39874;SDS011;25547;52.530;13.194;2023-04-24T12:47:45;0.68;;;0.00;;
39874;SDS011;25547;52.530;13.194;2023-04-24T12:50:14;2.28;;;0.30;;
39874;SDS011;25547;52.530;13.194;2023-04-24T12:52:40;4.00;;;0.45;;
39874;SDS011;25547;52.530;13.194;2023-04-24T12:55:07;0.73;;;0.20;;
39874;SDS011;25547;52.530;13.194;2023-04-24T12:57:33;1.15;;;0.10;;
39874;SDS011;25547;52.530;13.194;2023-04-24T13:00:03;0.63;;;0.10;;
39874;SDS011;25547;52.530;13.194;2023-04-24T13:02:30;3.15;;;0.47;;
39874;SDS011;25547;52.530;13.194;2023-04-24T13:04:56;1.67;;;0.10;;
39874;SDS011;25547;52.530;13.194;2023-04-24T13:07:23;2.28;;;0.10;;
39874;SDS011;25547;52.530;13.194;2023-04-24T13:09:50;4.07;;;0.05;;
39874;SDS011;25547;52.530;13.194;2023-04-24T13:12:21;3.42;;;0.03;;
39874;SDS011;25547;52.530;13.194;2023-04-24T13:14:48;1.70;;;0.00;;
39874;SDS011;25547;52.530;13.194;2023-04-24T13:17:14;2.10;;;0.20;;
39874;SDS011;25547;52.530;13.194;2023-04-24T13:19:41;2.80;;;0.10;;
39874;SDS011;25547;52.530;13.194;2023-04-24T13:22:10;1.08;;;0.10;;
39874;SDS011;25547;52.530;13.194;2023-04-24T13:24:39;1.65;;;0.30;;
39874;SDS011;25547;52.530;13.194;2023-04-24T13:27:10;2.05;;;0.05;;
39874;SDS011;25547;52.530;13.194;2023-04-24T13:29:38;0.47;;;0.00;;
39874;SDS011;25547;52.530;13.194;2023-04-24T13:32:04;2.55;;;0.00;;
39874;SDS011;25547;52.530;13.194;2023-04-24T13:34:30;0.88;;;0.10;;
39874;SDS011;25547;52.530;13.194;2023-04-24T13:36:58;0.93;;;0.00;;
39874;SDS011;25547;52.530;13.194;2023-04-24T13:39:26;3.42;;;0.28;;
39874;SDS011;25547;52.530;13.194;2023-04-24T13:44:25;2.17;;;0.00;;
39874;SDS011;25547;52.530;13.194;2023-04-24T13:46:53;2.15;;;0.00;;
39874;SDS011;25547;52.530;13.194;2023-04-24T13:49:23;0.77;;;0.08;;
39874;SDS011;25547;52.530;13.194;2023-04-24T13:51:52;2.50;;;0.20;;
39874;SDS011;25547;52.530;13.194;2023-04-24T13:54:39;2.33;;;0.00;;
39874;SDS011;25547;52.530;13.194;2023-04-24T13:57:06;1.17;;;0.00;;
39874;SDS011;25547;52.530;13.194;2023-04-24T13:59:32;0.85;;;0.00;;
39874;SDS011;25547;52.530;13.194;2023-04-24T14:02:02;2.05;;;0.00;;
39874;SDS011;25547;52.530;13.194;2023-04-24T14:04:32;1.83;;;0.00;;
39874;SDS011;25547;52.530;13.194;2023-04-24T14:06:58;7.03;;;0.08;;
39874;SDS011;25547;52.530;13.194;2023-04-24T14:09:24;1.98;;;0.00;;
39874;SDS011;25547;52.530;13.194;2023-04-24T14:11:52;0.55;;;0.00;;
39874;SDS011;25547;52.530;13.194;2023-04-24T14:14:20;0.25;;;0.00;;
39874;SDS011;25547;52.530;13.194;2023-04-24T14:16:46;0.60;;;0.00;;
39874;SDS011;25547;52.530;13.194;2023-04-24T14:19:14;1.75;;;0.00;;
39874;SDS011;25547;52.530;13.194;2023-04-24T14:21:40;0.73;;;0.00;;
39874;SDS011;25547;52.530;13.194;2023-04-24T14:24:06;3.90;;;0.00;;
39874;SDS011;25547;52.530;13.194;2023-04-24T14:26:31;4.22;;;0.00;;
39874;SDS011;25547;52.530;13.194;2023-04-24T14:28:57;1.65;;;0.00;;
39874;SDS011;25547;52.530;13.194;2023-04-24T14:31:24;0.93;;;0.00;;
39874;SDS011;25547;52.530;13.194;2023-04-24T14:33:52;0.50;;;0.00;;
39874;SDS011;25547;52.530;13.194;2023-04-24T14:36:17;1.65;;;0.10;;
39874;SDS011;25547;52.530;13.194;2023-04-24T14:38:43;0.30;;;0.00;;
39874;SDS011;25547;52.530;13.194;2023-04-24T14:41:09;0.60;;;0.00;;
39874;SDS011;25547;52.530;13.194;2023-04-24T14:43:36;0.65;;;0.00;;
39874;SDS011;25547;52.530;13.194;2023-04-24T14:46:02;1.77;;;0.00;;
39874;SDS011;25547;52.530;13.194;2023-04-24T14:48:28;0.50;;;0.00;;
39874;SDS011;25547;52.530;13.194;2023-04-24T14:50:54;0.93;;;0.00;;
39874;SDS011;25547;52.530;13.194;2023-04-24T14:53:19;0.85;;;0.00;;
39874;SDS011;25547;52.530;13.194;2023-04-24T14:55:45;0.80;;;0.00;;
39874;SDS011;25547;52.530;13.194;2023-04-24T14:58:11;0.32;;;0.00;;
39874;SDS011;25547;52.530;13.194;2023-04-24T15:00:37;0.50;;;0.00;;
39874;SDS011;25547;52.530;13.194;2023-04-24T15:03:04;0.63;;;0.00;;
39874;SDS011;25547;52.530;13.194;2023-04-24T15:05:30;0.40;;;0.00;;